createdAt,value
2022-11-15T00:01:18.978Z,0.77
2022-11-15T00:03:47.411Z,1.43
2022-11-15T00:06:15.632Z,1.40
2022-11-15T00:08:43.562Z,1.53
2022-11-15T00:11:13.390Z,1.03
2022-11-15T00:13:41.552Z,0.50
2022-11-15T00:16:11.398Z,1.07
2022-11-15T00:18:42.444Z,1.07
2022-11-15T00:21:14.276Z,0.80
2022-11-15T00:23:42.507Z,1.40
2022-11-15T00:26:13.892Z,0.80
2022-11-15T00:28:42.280Z,1.53
2022-11-15T00:31:15.007Z,0.87
2022-11-15T00:33:46.667Z,1.00
2022-11-15T00:36:14.726Z,0.70
2022-11-15T00:38:43.312Z,0.90
2022-11-15T00:41:11.392Z,0.50
2022-11-15T00:43:40.816Z,1.47
2022-11-15T00:46:10.465Z,1.17
2022-11-15T00:48:38.812Z,1.07
2022-11-15T00:51:08.192Z,0.63
2022-11-15T00:53:36.455Z,0.70
2022-11-15T00:56:04.571Z,0.97
2022-11-15T00:58:32.600Z,0.50
2022-11-15T01:01:09.127Z,0.70
2022-11-15T01:03:37.600Z,1.00
2022-11-15T01:06:07.667Z,1.00
2022-11-15T01:08:35.838Z,0.90
2022-11-15T01:11:05.163Z,0.40
2022-11-15T01:13:33.944Z,0.67
2022-11-15T01:16:07.924Z,0.50
2022-11-15T01:18:35.947Z,0.70
2022-11-15T01:21:09.585Z,0.50
2022-11-15T01:23:37.581Z,0.67
2022-11-15T01:26:07.315Z,0.83
2022-11-15T01:28:36.662Z,0.93
2022-11-15T01:31:07.065Z,0.93
2022-11-15T01:33:37.202Z,0.80
2022-11-15T01:36:08.221Z,0.67
2022-11-15T01:38:36.254Z,1.20
2022-11-15T01:41:04.392Z,0.60
2022-11-15T01:43:35.131Z,1.07
2022-11-15T01:46:06.466Z,0.40
2022-11-15T01:48:36.342Z,0.83
2022-11-15T01:51:09.757Z,0.60
2022-11-15T01:53:40.983Z,0.60
2022-11-15T01:56:13.500Z,0.53
2022-11-15T01:58:43.122Z,1.13
2022-11-15T02:01:11.149Z,0.60
2022-11-15T02:03:46.231Z,0.60
2022-11-15T02:06:16.387Z,0.67
2022-11-15T02:08:45.128Z,1.17
2022-11-15T02:11:13.245Z,0.50
2022-11-15T02:13:41.953Z,0.60
2022-11-15T02:16:17.509Z,0.60
2022-11-15T02:18:51.242Z,0.80
2022-11-15T02:21:28.734Z,0.50
2022-11-15T02:24:34.713Z,0.53
2022-11-15T02:27:34.211Z,0.60
2022-11-15T02:30:18.226Z,0.83
2022-11-15T02:32:50.421Z,1.93
2022-11-15T02:35:29.068Z,0.60
2022-11-15T02:38:00.574Z,0.70
2022-11-15T02:40:40.957Z,1.23
2022-11-15T02:43:30.688Z,0.50
2022-11-15T02:46:08.396Z,0.50
2022-11-15T02:48:37.028Z,1.00
2022-11-15T02:51:05.364Z,0.90
2022-11-15T02:53:33.574Z,0.80
2022-11-15T02:56:01.912Z,0.80
2022-11-15T02:59:00.079Z,0.70
2022-11-15T03:01:40.266Z,0.40
2022-11-15T03:04:20.875Z,0.73
2022-11-15T03:06:54.900Z,0.80
2022-11-15T03:09:32.666Z,0.50
2022-11-15T03:12:08.750Z,0.63
2022-11-15T03:14:41.871Z,1.20
2022-11-15T03:17:17.824Z,0.50
2022-11-15T03:19:48.557Z,0.50
2022-11-15T03:22:20.341Z,0.50
2022-11-15T03:24:52.512Z,0.87
2022-11-15T03:27:25.063Z,0.60
2022-11-15T03:29:57.247Z,0.93
2022-11-15T03:32:30.111Z,0.40
2022-11-15T03:35:00.808Z,0.60
2022-11-15T03:37:35.762Z,0.50
2022-11-15T03:40:04.941Z,0.63
2022-11-15T03:42:38.125Z,0.73
2022-11-15T03:45:14.988Z,0.50
2022-11-15T03:47:48.698Z,1.13
2022-11-15T03:50:19.627Z,0.40
2022-11-15T03:52:48.962Z,0.80
2022-11-15T03:55:19.616Z,0.50
2022-11-15T03:57:49.584Z,0.80
2022-11-15T04:00:18.189Z,0.60
2022-11-15T04:02:47.531Z,0.40
2022-11-15T04:05:15.622Z,0.40
2022-11-15T04:07:43.605Z,0.50
2022-11-15T04:10:13.450Z,0.60
2022-11-15T04:12:44.310Z,1.33
2022-11-15T04:15:15.078Z,0.47
2022-11-15T04:17:45.056Z,0.40
2022-11-15T04:20:34.374Z,0.43
2022-11-15T04:23:21.787Z,1.27
2022-11-15T04:25:53.050Z,0.90
2022-11-15T04:28:21.602Z,0.60
2022-11-15T04:30:49.627Z,0.50
2022-11-15T04:33:17.618Z,0.40
2022-11-15T04:36:06.954Z,0.50
2022-11-15T04:38:34.389Z,1.00
2022-11-15T04:41:02.626Z,0.80
2022-11-15T04:43:30.972Z,0.60
2022-11-15T04:45:59.145Z,1.43
2022-11-15T04:48:27.061Z,0.80
2022-11-15T04:50:56.342Z,0.50
2022-11-15T04:53:24.259Z,0.50
2022-11-15T04:55:52.185Z,0.40
2022-11-15T04:58:20.123Z,0.80
2022-11-15T05:00:48.077Z,0.40
2022-11-15T05:03:33.627Z,0.57
2022-11-15T05:06:03.387Z,0.80
2022-11-15T05:08:31.335Z,0.73
2022-11-15T05:10:59.369Z,1.23
2022-11-15T05:13:27.420Z,0.70
2022-11-15T05:15:55.372Z,0.60
2022-11-15T05:18:23.871Z,0.40
2022-11-15T05:20:51.979Z,0.60
2022-11-15T05:23:21.315Z,0.40
2022-11-15T05:25:49.333Z,1.10
2022-11-15T05:28:17.274Z,0.70
2022-11-15T05:30:45.282Z,0.73
2022-11-15T05:33:13.418Z,0.60
2022-11-15T05:35:44.293Z,0.63
2022-11-15T05:38:12.223Z,0.40
2022-11-15T05:40:41.556Z,0.70
2022-11-15T05:43:09.939Z,0.60
2022-11-15T05:45:39.017Z,0.60
2022-11-15T05:48:09.910Z,0.70
2022-11-15T05:50:40.696Z,1.43
2022-11-15T05:53:08.908Z,0.40
2022-11-15T05:55:36.847Z,0.70
2022-11-15T05:58:06.138Z,0.63
2022-11-15T06:00:34.307Z,0.87
2022-11-15T06:03:02.273Z,1.10
2022-11-15T06:05:30.214Z,1.73
2022-11-15T06:08:00.424Z,0.60
2022-11-15T06:10:28.808Z,0.60
2022-11-15T06:13:00.040Z,0.40
2022-11-15T06:15:29.372Z,0.63
2022-11-15T06:17:59.419Z,0.90
2022-11-15T06:20:27.429Z,0.73
2022-11-15T06:22:59.039Z,0.40
2022-11-15T06:25:27.463Z,1.37
2022-11-15T06:27:57.030Z,0.50
2022-11-15T06:30:25.858Z,1.17
2022-11-15T06:33:01.206Z,0.53
2022-11-15T06:35:29.670Z,0.87
2022-11-15T06:37:58.470Z,0.47
2022-11-15T06:40:26.416Z,1.00
2022-11-15T06:42:59.970Z,0.60
2022-11-15T06:45:27.991Z,0.80
2022-11-15T06:47:57.303Z,0.77
2022-11-15T06:50:25.433Z,0.40
2022-11-15T06:52:53.598Z,0.70
2022-11-15T06:55:21.833Z,0.80
2022-11-15T06:57:50.793Z,0.60
2022-11-15T07:00:20.661Z,0.53
2022-11-15T07:02:48.800Z,0.50
2022-11-15T07:05:18.514Z,0.57
2022-11-15T07:07:54.182Z,1.07
2022-11-15T07:10:22.721Z,0.60
2022-11-15T07:12:51.007Z,0.53
2022-11-15T07:15:19.817Z,0.47
2022-11-15T07:17:48.126Z,0.83
2022-11-15T07:20:18.090Z,0.97
2022-11-15T07:22:46.885Z,0.60
2022-11-15T07:25:14.881Z,0.47
2022-11-15T07:27:43.178Z,0.50
2022-11-15T07:30:14.509Z,0.97
2022-11-15T07:32:43.530Z,0.90
2022-11-15T07:35:11.447Z,1.50
2022-11-15T07:37:40.786Z,0.60
2022-11-15T07:40:10.547Z,0.40
2022-11-15T07:42:57.128Z,0.93
2022-11-15T07:45:27.794Z,0.93
2022-11-15T07:47:56.822Z,3.83
2022-11-15T07:50:25.469Z,3.43
2022-11-15T07:52:57.544Z,3.57
2022-11-15T07:55:26.096Z,5.30
2022-11-15T07:57:54.037Z,11.50
2022-11-15T08:00:22.158Z,3.03
2022-11-15T08:02:50.186Z,1.33
2022-11-15T08:05:18.356Z,1.13
2022-11-15T08:07:46.254Z,0.93
2022-11-15T08:10:17.690Z,0.70
2022-11-15T08:12:45.706Z,0.80
2022-11-15T08:15:13.671Z,1.67
2022-11-15T08:17:41.625Z,1.47
2022-11-15T08:20:10.740Z,1.20
2022-11-15T08:22:38.668Z,1.27
2022-11-15T08:25:07.093Z,0.60
2022-11-15T08:27:36.464Z,1.10
2022-11-15T08:30:04.956Z,1.67
2022-11-15T08:32:32.937Z,1.27
2022-11-15T08:35:00.844Z,1.23
2022-11-15T08:37:28.904Z,0.90
2022-11-15T08:39:56.809Z,0.80
2022-11-15T08:42:24.711Z,1.10
2022-11-15T08:44:54.021Z,1.90
2022-11-15T08:47:21.963Z,1.23
2022-11-15T08:49:49.906Z,1.23
2022-11-15T08:52:17.842Z,1.47
2022-11-15T08:54:45.761Z,1.23
2022-11-15T08:57:14.091Z,1.13
2022-11-15T08:59:42.019Z,1.60
2022-11-15T09:02:15.636Z,0.83
2022-11-15T09:04:44.357Z,0.70
2022-11-15T09:07:13.076Z,2.07
2022-11-15T09:09:41.411Z,1.10
2022-11-15T09:12:09.813Z,2.10
2022-11-15T09:14:37.745Z,1.57
2022-11-15T09:17:05.765Z,2.20
2022-11-15T09:19:35.054Z,0.90
2022-11-15T09:22:03.099Z,3.30
2022-11-15T09:24:31.022Z,2.10
2022-11-15T09:26:58.962Z,1.57
2022-11-15T09:29:26.961Z,1.30
2022-11-15T09:31:55.022Z,0.97
2022-11-15T09:34:22.991Z,1.23
2022-11-15T09:36:52.271Z,1.73
2022-11-15T09:39:20.249Z,1.73
2022-11-15T09:42:09.981Z,1.30
2022-11-15T09:44:47.438Z,1.70
2022-11-15T09:47:48.569Z,1.80
2022-11-15T09:50:19.565Z,1.17
2022-11-15T09:52:48.873Z,1.00
2022-11-15T09:55:22.321Z,1.80
2022-11-15T09:57:56.553Z,1.80
2022-11-15T10:00:47.219Z,1.27
2022-11-15T10:03:19.695Z,1.73
2022-11-15T10:05:49.137Z,1.57
2022-11-15T10:08:33.923Z,1.40
2022-11-15T10:11:35.632Z,1.63
2022-11-15T10:13:57.130Z,2.20
2022-11-15T10:16:54.670Z,2.10
2022-11-15T10:19:28.511Z,1.67
2022-11-15T10:22:06.153Z,1.60
2022-11-15T10:24:39.463Z,1.43
2022-11-15T10:27:12.680Z,1.63
2022-11-15T10:29:46.171Z,2.63
2022-11-15T10:32:15.158Z,1.83
2022-11-15T10:34:43.739Z,1.70
2022-11-15T10:37:11.651Z,1.87
2022-11-15T10:39:41.248Z,1.60
2022-11-15T10:42:20.140Z,1.10
2022-11-15T10:44:48.037Z,2.03
2022-11-15T10:47:37.840Z,1.80
2022-11-15T10:50:09.500Z,1.50
2022-11-15T10:52:39.253Z,1.40
2022-11-15T10:55:24.025Z,1.33
2022-11-15T10:57:54.779Z,2.00
2022-11-15T11:00:32.621Z,1.77
2022-11-15T11:03:02.683Z,1.93
2022-11-15T11:05:39.662Z,2.13
2022-11-15T11:08:25.586Z,1.73
2022-11-15T11:11:02.559Z,1.43
2022-11-15T11:13:32.543Z,1.00
2022-11-15T11:16:18.066Z,1.07
2022-11-15T11:18:53.634Z,1.13
2022-11-15T11:21:34.200Z,1.07
2022-11-15T11:24:14.250Z,1.07
2022-11-15T11:26:56.729Z,1.70
2022-11-15T11:29:40.585Z,1.07
2022-11-15T11:32:24.549Z,1.40
2022-11-15T11:35:00.682Z,0.90
2022-11-15T11:37:36.123Z,1.53
2022-11-15T11:40:18.036Z,2.23
2022-11-15T11:43:00.218Z,3.20
2022-11-15T11:45:50.722Z,1.50
2022-11-15T11:48:33.323Z,1.43
2022-11-15T11:51:09.814Z,1.03
2022-11-15T11:53:43.126Z,1.77
2022-11-15T11:56:21.711Z,0.90
2022-11-15T11:58:54.502Z,1.30
2022-11-15T12:01:26.577Z,1.67
2022-11-15T12:03:59.023Z,1.90
2022-11-15T12:06:33.838Z,1.17
2022-11-15T12:09:06.365Z,1.20
2022-11-15T12:11:41.152Z,2.27
2022-11-15T12:14:22.229Z,1.47
2022-11-15T12:16:50.141Z,2.43
2022-11-15T12:19:18.096Z,1.10
2022-11-15T12:21:51.161Z,1.80
2022-11-15T12:24:21.935Z,0.73
2022-11-15T12:26:54.686Z,1.07
2022-11-15T12:29:29.526Z,0.80
2022-11-15T12:32:00.873Z,1.57
2022-11-15T12:34:39.196Z,0.90
2022-11-15T12:37:57.040Z,1.70
2022-11-15T12:40:29.452Z,1.10
2022-11-15T12:43:29.957Z,0.97
2022-11-15T12:46:05.397Z,1.30
2022-11-15T12:48:52.850Z,1.10
2022-11-15T12:51:23.250Z,0.90
2022-11-15T12:53:51.178Z,1.20
2022-11-15T12:56:26.006Z,2.30
2022-11-15T12:58:57.515Z,1.10
2022-11-15T13:01:58.184Z,1.20
2022-11-15T13:04:29.119Z,1.03
2022-11-15T13:06:58.838Z,1.27
2022-11-15T13:09:56.589Z,1.10
2022-11-15T13:12:56.819Z,1.27
2022-11-15T13:15:57.348Z,0.90
2022-11-15T13:18:35.011Z,1.30
2022-11-15T13:21:26.177Z,2.53
2022-11-15T13:23:56.005Z,2.00
2022-11-15T13:26:24.695Z,1.43
2022-11-15T13:28:56.338Z,1.23
2022-11-15T13:31:29.828Z,1.10
2022-11-15T13:34:02.973Z,1.97
2022-11-15T13:36:34.241Z,1.17
2022-11-15T13:39:05.733Z,1.97
2022-11-15T13:41:35.534Z,1.20
2022-11-15T13:44:05.621Z,1.40
2022-11-15T13:46:34.889Z,1.20
2022-11-15T13:49:06.409Z,1.53
2022-11-15T13:51:39.068Z,1.23
2022-11-15T13:54:19.127Z,1.83
2022-11-15T13:56:50.056Z,1.13
2022-11-15T13:59:25.767Z,1.40
2022-11-15T14:01:54.383Z,1.27
2022-11-15T14:04:26.800Z,1.10
2022-11-15T14:06:57.884Z,1.07
2022-11-15T14:09:35.611Z,1.33
2022-11-15T14:12:04.991Z,1.97
2022-11-15T14:14:32.943Z,1.57
2022-11-15T14:17:02.298Z,1.53
2022-11-15T14:19:41.953Z,1.73
2022-11-15T14:22:11.592Z,1.17
2022-11-15T14:24:40.141Z,1.20
2022-11-15T14:27:26.596Z,1.20
2022-11-15T14:29:55.063Z,1.63
2022-11-15T14:32:24.886Z,1.97
2022-11-15T14:34:59.288Z,1.20
2022-11-15T14:37:29.494Z,0.80
2022-11-15T14:39:57.809Z,0.93
2022-11-15T14:42:26.583Z,1.33
2022-11-15T14:44:54.661Z,1.40
2022-11-15T14:47:22.821Z,0.90
2022-11-15T14:49:50.828Z,0.90
2022-11-15T14:52:32.312Z,1.10
2022-11-15T14:55:02.347Z,1.60
2022-11-15T14:57:30.771Z,2.03
2022-11-15T14:59:58.827Z,1.50
2022-11-15T15:02:28.887Z,1.13
2022-11-15T15:04:56.857Z,1.43
2022-11-15T15:07:26.286Z,1.20
2022-11-15T15:10:02.798Z,1.37
2022-11-15T15:12:42.692Z,1.00
2022-11-15T15:15:16.090Z,0.90
2022-11-15T15:17:44.373Z,0.70
2022-11-15T15:20:13.132Z,0.70
2022-11-15T15:22:42.481Z,0.77
2022-11-15T15:25:27.808Z,0.93
2022-11-15T15:27:56.062Z,0.90
2022-11-15T15:30:24.376Z,1.67
2022-11-15T15:32:52.334Z,1.27
2022-11-15T15:35:20.472Z,1.00
2022-11-15T15:37:52.097Z,1.00
2022-11-15T15:40:22.290Z,0.97
2022-11-15T15:42:50.702Z,0.77
2022-11-15T15:45:19.417Z,1.30
2022-11-15T15:47:48.160Z,1.37
2022-11-15T15:50:23.043Z,1.43
2022-11-15T15:52:52.775Z,1.43
2022-11-15T15:55:21.299Z,1.43
2022-11-15T15:57:49.653Z,1.23
2022-11-15T16:00:19.226Z,0.70
2022-11-15T16:02:47.277Z,0.83
2022-11-15T16:05:15.516Z,1.40
2022-11-15T16:07:44.420Z,1.07
2022-11-15T16:10:21.096Z,1.43
2022-11-15T16:12:49.634Z,0.97
2022-11-15T16:15:17.843Z,0.70
2022-11-15T16:17:50.171Z,1.40
2022-11-15T16:20:28.455Z,1.70
2022-11-15T16:22:56.406Z,1.10
2022-11-15T16:25:26.500Z,1.00
2022-11-15T16:27:54.530Z,1.10
2022-11-15T16:30:24.301Z,1.50
2022-11-15T16:32:52.321Z,2.00
2022-11-15T16:35:20.357Z,3.20
2022-11-15T16:37:48.319Z,2.50
2022-11-15T16:40:27.549Z,2.10
2022-11-15T16:42:56.539Z,0.90
2022-11-15T16:45:24.827Z,3.03
2022-11-15T16:47:54.220Z,2.30
2022-11-15T16:50:25.036Z,1.70
2022-11-15T16:52:54.157Z,1.93
2022-11-15T16:55:23.156Z,2.60
2022-11-15T16:57:53.296Z,1.50
2022-11-15T17:00:22.151Z,2.70
2022-11-15T17:02:51.305Z,2.13
2022-11-15T17:05:20.802Z,1.90
2022-11-15T17:07:50.494Z,1.57
2022-11-15T17:10:18.922Z,2.53
2022-11-15T17:12:46.819Z,2.40
2022-11-15T17:15:16.095Z,2.30
2022-11-15T17:17:44.274Z,1.67
2022-11-15T17:20:16.976Z,1.80
2022-11-15T17:22:45.248Z,1.73
2022-11-15T17:25:13.184Z,1.87
2022-11-15T17:27:41.500Z,1.70
2022-11-15T17:30:11.272Z,1.90
2022-11-15T17:32:40.529Z,1.90
2022-11-15T17:35:15.156Z,2.17
2022-11-15T17:37:43.881Z,1.70
2022-11-15T17:40:12.570Z,1.10
2022-11-15T17:42:42.314Z,1.63
2022-11-15T17:45:11.938Z,1.40
2022-11-15T17:47:41.213Z,1.10
2022-11-15T17:50:10.707Z,1.40
2022-11-15T17:52:38.652Z,1.23
2022-11-15T17:55:07.359Z,1.53
2022-11-15T17:57:35.269Z,1.23
2022-11-15T18:00:03.568Z,1.03
2022-11-15T18:02:31.738Z,0.60
2022-11-15T18:05:01.004Z,1.40
2022-11-15T18:07:29.192Z,1.83
2022-11-15T18:09:57.164Z,1.63
2022-11-15T18:12:25.135Z,1.43
2022-11-15T18:14:53.102Z,1.20
2022-11-15T18:17:21.018Z,3.77
2022-11-15T18:19:48.956Z,4.90
2022-11-15T18:22:18.534Z,2.33
2022-11-15T18:24:47.067Z,2.63
2022-11-15T18:27:15.032Z,1.10
2022-11-15T18:29:44.773Z,1.00
2022-11-15T18:32:15.059Z,1.43
2022-11-15T18:34:43.079Z,2.40
2022-11-15T18:37:11.089Z,1.63
2022-11-15T18:39:40.404Z,2.20
2022-11-15T18:42:08.349Z,3.33
2022-11-15T18:44:36.320Z,1.77
2022-11-15T18:47:04.374Z,2.47
2022-11-15T18:49:32.414Z,2.27
2022-11-15T18:52:00.399Z,1.60
2022-11-15T18:54:31.282Z,1.93
2022-11-15T18:57:01.685Z,1.50
2022-11-15T18:59:30.683Z,1.37
2022-11-15T19:01:58.738Z,2.27
2022-11-15T19:04:26.738Z,3.70
2022-11-15T19:06:55.093Z,1.77
2022-11-15T19:09:27.181Z,1.27
2022-11-15T19:11:55.111Z,1.80
2022-11-15T19:14:26.239Z,2.60
2022-11-15T19:16:55.027Z,2.30
2022-11-15T19:19:24.710Z,3.60
2022-11-15T19:21:53.501Z,2.00
2022-11-15T19:24:21.635Z,2.60
2022-11-15T19:26:49.583Z,1.40
2022-11-15T19:29:18.275Z,1.40
2022-11-15T19:31:48.656Z,1.97
2022-11-15T19:34:17.846Z,1.87
2022-11-15T19:36:46.206Z,2.27
2022-11-15T19:39:17.846Z,1.53
2022-11-15T19:41:46.500Z,2.13
2022-11-15T19:44:14.834Z,1.57
2022-11-15T19:46:44.236Z,1.70
2022-11-15T19:49:13.880Z,1.30
2022-11-15T19:51:44.960Z,1.67
2022-11-15T19:54:13.562Z,2.50
2022-11-15T19:56:41.600Z,2.73
2022-11-15T19:59:11.549Z,1.03
2022-11-15T20:01:39.710Z,2.30
2022-11-15T20:04:09.896Z,1.70
2022-11-15T20:06:41.346Z,2.10
2022-11-15T20:09:12.138Z,2.70
2022-11-15T20:11:40.037Z,3.30
2022-11-15T20:14:09.597Z,3.73
2022-11-15T20:16:37.507Z,6.10
2022-11-15T20:19:05.837Z,5.50
2022-11-15T20:21:33.766Z,5.07
2022-11-15T20:24:03.174Z,2.73
2022-11-15T20:26:32.128Z,3.07
2022-11-15T20:29:03.067Z,2.10
2022-11-15T20:31:31.797Z,3.43
2022-11-15T20:33:59.925Z,2.83
2022-11-15T20:36:28.152Z,3.37
2022-11-15T20:38:58.256Z,2.43
2022-11-15T20:41:28.478Z,2.57
2022-11-15T20:43:56.468Z,2.20
2022-11-15T20:46:24.362Z,2.23
2022-11-15T20:48:52.269Z,2.33
2022-11-15T20:51:20.552Z,2.30
2022-11-15T20:53:48.743Z,2.63
2022-11-15T20:56:18.757Z,2.53
2022-11-15T20:58:50.267Z,5.17
2022-11-15T21:01:23.586Z,2.20
2022-11-15T21:03:52.812Z,2.70
2022-11-15T21:06:21.068Z,3.37
2022-11-15T21:09:06.970Z,2.40
2022-11-15T21:11:52.411Z,2.67
2022-11-15T21:14:21.953Z,2.77
2022-11-15T21:16:49.933Z,2.63
2022-11-15T21:19:19.748Z,3.80
2022-11-15T21:21:50.637Z,3.57
2022-11-15T21:24:20.031Z,2.50
2022-11-15T21:26:47.997Z,2.60
2022-11-15T21:29:17.409Z,2.70
2022-11-15T21:31:47.728Z,3.40
2022-11-15T21:34:16.265Z,2.27
2022-11-15T21:36:44.279Z,2.67
2022-11-15T21:39:12.371Z,3.27
2022-11-15T21:41:40.786Z,2.57
2022-11-15T21:44:08.762Z,3.30
2022-11-15T21:46:37.276Z,2.27
2022-11-15T21:49:07.020Z,3.10
2022-11-15T21:51:35.273Z,2.03
2022-11-15T21:54:03.233Z,3.10
2022-11-15T21:56:32.336Z,1.67
2022-11-15T21:59:00.524Z,3.67
2022-11-15T22:01:47.111Z,2.13
2022-11-15T22:04:17.660Z,2.10
2022-11-15T22:06:45.608Z,3.13
2022-11-15T22:09:13.596Z,2.53
2022-11-15T22:11:41.538Z,2.30
2022-11-15T22:14:09.951Z,1.90
2022-11-15T22:16:37.964Z,2.73
2022-11-15T22:19:05.893Z,1.90
2022-11-15T22:21:35.302Z,2.60
2022-11-15T22:24:03.373Z,1.73
2022-11-15T22:26:31.294Z,4.23
2022-11-15T22:28:59.220Z,2.03
2022-11-15T22:31:28.397Z,2.07
2022-11-15T22:33:56.342Z,2.13
2022-11-15T22:36:27.245Z,3.20
2022-11-15T22:39:02.310Z,0.97
2022-11-15T22:41:30.626Z,3.30
2022-11-15T22:43:58.583Z,3.07
2022-11-15T22:46:27.797Z,3.40
2022-11-15T22:48:58.587Z,1.60
2022-11-15T22:51:28.833Z,2.33
2022-11-15T22:53:56.780Z,2.67
2022-11-15T22:56:26.086Z,3.13
2022-11-15T22:58:54.018Z,3.10
2022-11-15T23:01:23.022Z,2.17
2022-11-15T23:03:51.071Z,2.20
2022-11-15T23:06:19.048Z,1.63
2022-11-15T23:08:47.008Z,1.93
2022-11-15T23:11:43.785Z,1.37
2022-11-15T23:14:13.212Z,2.00
2022-11-15T23:16:41.184Z,2.43
2022-11-15T23:19:11.701Z,2.80
2022-11-15T23:21:59.048Z,1.83
2022-11-15T23:24:27.087Z,1.93
2022-11-15T23:26:56.738Z,2.37
2022-11-15T23:29:27.629Z,3.47
2022-11-15T23:32:14.415Z,1.83
2022-11-15T23:34:43.571Z,2.37
2022-11-15T23:37:13.289Z,1.70
2022-11-15T23:39:41.357Z,3.13
2022-11-15T23:42:19.388Z,3.17
2022-11-15T23:44:50.595Z,5.20
2022-11-15T23:47:18.828Z,1.73
2022-11-15T23:49:46.822Z,1.97
2022-11-15T23:52:15.717Z,1.83
2022-11-15T23:54:43.934Z,1.57
2022-11-15T23:57:12.718Z,2.20
2022-11-15T23:59:40.756Z,2.30
